Central Point, Oregon
Current Conditions -  °F | °C
As of 2:53 AM on Saturday 25 Oct 2014 (Local Time) from KMFR Reporting Station
Clear Clear  
Wind Chill: 60°   Ceiling: Unl
Heat Index: 60°   Visibility: 10mi
Dew Point: 46°   Wind: 16mph
Humidity: 60%   Direction: 160°SSE
Pressure: 29.57"   Gusts: 24mph
Location:  42.38°N, 122.91°W
Report Text: KMFR 250953Z AUTO 16014G21KT 10SM CLR 16/08 A2957 RMK AO2 SLP008 T01560078
Loading
Personal Weather Stations






























Interactive Weather Map
Tropical Storm Tracking
New forecast layout! Learn more

10-Day Weather Forecast

Advertisements
Track Severe Weather on mobile